Time;durP1;ratioP1;P1;durP2;ratioP2;P2;SDS_P1;SDS_P2;PMS_P1;PMS_P2;Temp;Humidity;BMP_temperature;BMP_pressure;BME280_temperature;BME280_humidity;BME280_pressure;Samples;Min_cycle;Max_cycle;Signal;HPM_P1;HPM_P2
2023/04/12 00:00:35;;;;;;;;;1.00;1.00;;;;;9.85;54.08;99060.56;5096122;28;8850;-59
2023/04/12 00:03:03;;;;;;;;;0.50;0.50;;;;;9.85;53.98;99048.13;5096483;28;8830;-59
2023/04/12 00:05:31;;;;;;;;;0.00;0.00;;;;;9.87;53.81;99045.31;5096265;28;8834;-60
2023/04/12 00:08:01;;;;;;;;;0.25;0.25;;;;;9.87;53.77;99035.50;5096407;28;8838;-59
2023/04/12 00:10:28;;;;;;;;;0.00;0.00;;;;;9.88;53.89;99021.22;5095933;28;8836;-62
2023/04/12 00:12:56;;;;;;;;;1.75;1.75;;;;;9.90;54.01;99018.44;5096178;28;8822;-61
2023/04/12 00:15:24;;;;;;;;;0.00;0.00;;;;;9.89;53.81;99001.66;5095999;28;8853;-59
2023/04/12 00:17:52;;;;;;;;;0.50;0.00;;;;;9.90;53.68;98991.84;5096245;28;8818;-61
2023/04/12 00:20:20;;;;;;;;;1.50;0.50;;;;;9.89;53.83;98991.03;5095696;28;8825;-59
2023/04/12 00:22:48;;;;;;;;;1.00;1.00;;;;;9.90;54.04;98998.03;5100164;28;8810;-60
2023/04/12 00:25:15;;;;;;;;;0.00;0.00;;;;;9.90;53.68;98998.03;5099786;28;8821;-61
2023/04/12 00:27:43;;;;;;;;;0.50;0.50;;;;;9.91;53.68;98991.72;5099465;28;8860;-59
2023/04/12 00:30:11;;;;;;;;;0.50;0.50;;;;;9.91;54.04;98989.06;5099606;28;8839;-58
2023/04/12 00:32:39;;;;;;;;;0.25;0.00;;;;;9.93;54.20;98975.63;5100227;28;8833;-59
2023/04/12 00:35:07;;;;;;;;;0.00;0.00;;;;;9.94;53.90;98972.00;5099830;28;8814;-59
2023/04/12 00:37:37;;;;;;;;;0.50;0.50;;;;;9.93;53.90;98971.13;5099745;28;8826;-59
2023/04/12 00:40:07;;;;;;;;;0.00;0.00;;;;;9.92;54.40;98971.28;5099893;28;8830;-59
2023/04/12 00:42:35;;;;;;;;;0.00;0.00;;;;;9.91;53.78;98967.78;5100081;28;8814;-59
2023/04/12 00:45:02;;;;;;;;;0.00;0.00;;;;;9.90;53.96;98966.13;5100071;28;9533;-59
2023/04/12 00:47:31;;;;;;;;;2.00;1.00;;;;;9.88;54.70;98964.56;5099524;28;8814;-60
2023/04/12 00:49:58;;;;;;;;;0.00;0.00;;;;;9.88;54.04;98961.91;5099699;28;8956;-60
2023/04/12 00:52:26;;;;;;;;;1.00;0.00;;;;;9.86;54.39;98959.38;5099577;28;8822;-59
2023/04/12 00:54:54;;;;;;;;;0.25;0.25;;;;;9.87;54.49;98954.94;5099254;28;8818;-59
2023/04/12 00:57:22;;;;;;;;;0.50;0.50;;;;;9.85;54.63;98936.44;5099121;28;8830;-59
2023/04/12 00:59:51;;;;;;;;;0.00;0.00;;;;;9.86;54.60;98942.63;5099018;28;8838;-60
2023/04/12 01:02:18;;;;;;;;;0.75;0.25;;;;;9.87;54.51;98939.78;5099002;28;8856;-60
2023/04/12 01:04:49;;;;;;;;;2.00;0.50;;;;;9.89;54.80;98942.31;5099376;28;8814;-61
2023/04/12 01:07:17;;;;;;;;;0.00;0.00;;;;;9.92;55.17;98932.25;5099230;28;8828;-62
2023/04/12 01:09:45;;;;;;;;;0.00;0.00;;;;;9.96;55.23;98943.44;5099341;28;8877;-62
2023/04/12 01:12:13;;;;;;;;;0.50;0.50;;;;;10.00;54.97;98928.84;5099069;28;8806;-60
2023/04/12 01:14:40;;;;;;;;;0.00;0.00;;;;;10.01;55.33;98938.53;5098973;28;8814;-61
2023/04/12 01:17:08;;;;;;;;;0.00;0.00;;;;;10.03;55.58;98924.13;5099193;28;9484;-60
2023/04/12 01:19:36;;;;;;;;;0.00;0.00;;;;;10.03;55.84;98929.44;5098794;28;8841;-59
2023/04/12 01:22:04;;;;;;;;;0.25;0.25;;;;;10.03;56.00;98923.28;5098800;28;8849;-61
2023/04/12 01:24:34;;;;;;;;;2.00;1.00;;;;;10.01;55.86;98918.06;5099578;28;9471;-61
2023/04/12 01:27:02;;;;;;;;;0.00;0.00;;;;;10.01;56.09;98910.09;5098658;28;8829;-60
2023/04/12 01:29:30;;;;;;;;;0.00;0.00;;;;;10.00;55.99;98899.59;5098280;28;8825;-60
2023/04/12 01:31:58;;;;;;;;;1.00;1.00;;;;;10.00;56.20;98904.91;5098746;28;8814;-59
2023/04/12 01:34:25;;;;;;;;;0.50;0.00;;;;;9.99;56.72;98890.78;5098826;28;8834;-59
2023/04/12 01:36:53;;;;;;;;;0.75;0.00;;;;;9.98;56.53;98890.94;5099117;28;8969;-59
2023/04/12 01:39:21;;;;;;;;;1.00;1.00;;;;;9.97;56.97;98895.44;5098564;28;8883;-60
2023/04/12 01:41:49;;;;;;;;;0.75;0.50;;;;;9.96;56.95;98880.44;5098592;28;8826;-59
2023/04/12 01:44:17;;;;;;;;;3.00;3.00;;;;;9.95;57.17;98878.75;5098183;28;8822;-61
2023/04/12 01:46:45;;;;;;;;;0.00;0.00;;;;;9.92;57.66;98868.41;5098495;28;8926;-60
2023/04/12 01:49:13;;;;;;;;;0.00;0.00;;;;;9.90;58.08;98859.75;5098352;28;8825;-61
2023/04/12 01:51:41;;;;;;;;;2.00;1.00;;;;;9.89;58.78;98860.75;5098537;28;8825;-62
2023/04/12 01:54:10;;;;;;;;;1.00;0.00;;;;;9.87;58.55;98860.03;5097825;28;8818;-61
2023/04/12 01:56:38;;;;;;;;;1.00;1.00;;;;;9.85;58.49;98855.81;5097754;28;8822;-60
2023/04/12 01:59:06;;;;;;;;;1.00;1.00;;;;;9.83;58.98;98847.16;5097691;28;8806;-61
2023/04/12 02:01:34;;;;;;;;;0.50;0.00;;;;;9.82;59.73;98843.69;5097942;28;8862;-62
2023/04/12 02:04:03;;;;;;;;;0.00;0.00;;;;;9.80;59.43;98848.28;5098012;28;8826;-61
2023/04/12 02:06:31;;;;;;;;;1.00;1.00;;;;;9.78;59.91;98831.66;5098148;28;8923;-61
2023/04/12 02:08:59;;;;;;;;;0.00;0.00;;;;;9.76;59.88;98830.97;5096974;28;8914;-60
2023/04/12 02:11:27;;;;;;;;;1.00;1.00;;;;;9.74;60.27;98817.00;5097620;28;8822;-59
2023/04/12 02:13:55;;;;;;;;;0.50;0.25;;;;;9.73;59.83;98807.31;5097430;28;8853;-61
2023/04/12 02:16:23;;;;;;;;;1.00;1.00;;;;;9.70;60.00;98804.94;5097496;28;8837;-60
2023/04/12 02:18:51;;;;;;;;;0.00;0.00;;;;;9.69;60.24;98800.63;5097057;28;8830;-60
2023/04/12 02:21:20;;;;;;;;;1.00;1.00;;;;;9.67;60.32;98780.47;5097466;28;8818;-59
2023/04/12 02:23:47;;;;;;;;;1.00;1.00;;;;;9.67;60.00;98783.13;5096870;28;8873;-62
2023/04/12 02:26:16;;;;;;;;;2.50;1.00;;;;;9.66;60.88;98786.78;5097111;28;8818;-62
2023/04/12 02:28:43;;;;;;;;;0.50;0.25;;;;;9.65;60.79;98769.97;5096582;28;8816;-59
2023/04/12 02:31:11;;;;;;;;;0.00;0.00;;;;;9.64;61.09;98767.50;5097490;28;8838;-62
2023/04/12 02:33:39;;;;;;;;;0.00;0.00;;;;;9.61;61.14;98759.78;5097274;28;8956;-61
2023/04/12 02:36:07;;;;;;;;;0.00;0.00;;;;;9.59;61.56;98754.66;5097479;28;8814;-59
2023/04/12 02:38:35;;;;;;;;;2.00;1.00;;;;;9.58;61.56;98754.78;5097365;28;8834;-62
2023/04/12 02:41:03;;;;;;;;;0.50;0.00;;;;;9.55;61.90;98742.63;5097455;28;8825;-60
2023/04/12 02:43:31;;;;;;;;;1.00;1.00;;;;;9.54;62.06;98734.78;5096785;28;8814;-60
2023/04/12 02:45:58;;;;;;;;;0.00;0.00;;;;;9.52;62.20;98721.66;5097063;28;8830;-61
2023/04/12 02:48:26;;;;;;;;;1.00;1.00;;;;;9.48;62.56;98720.25;5097038;28;8861;-60
2023/04/12 02:50:54;;;;;;;;;0.00;0.00;;;;;9.47;62.54;98721.25;5097248;28;8822;-59
2023/04/12 02:53:22;;;;;;;;;2.00;1.00;;;;;9.45;62.46;98723.22;5096602;28;8944;-59
2023/04/12 02:55:50;;;;;;;;;0.00;0.00;;;;;9.45;62.41;98722.38;5096995;28;8822;-59
2023/04/12 02:58:18;;;;;;;;;2.50;1.00;;;;;9.43;63.18;98709.22;5096822;28;8846;-59
2023/04/12 03:00:46;;;;;;;;;0.00;0.00;;;;;9.41;62.97;98705.88;5096535;28;8854;-58
2023/04/12 03:03:16;;;;;;;;;0.00;0.00;;;;;9.41;63.74;98702.41;5097037;28;8818;-59
2023/04/12 03:05:46;;;;;;;;;0.00;0.00;;;;;9.40;63.36;98698.91;5096305;28;8846;-59
2023/04/12 03:08:13;;;;;;;;;0.50;0.50;;;;;9.38;63.91;98694.69;5096409;28;9598;-59
2023/04/12 03:10:43;;;;;;;;;3.00;1.00;;;;;9.36;63.80;98684.25;5096552;28;8919;-60
2023/04/12 03:13:11;;;;;;;;;0.50;0.50;;;;;9.36;63.78;98676.28;5096343;28;8861;-61
2023/04/12 03:15:39;;;;;;;;;0.00;0.00;;;;;9.35;64.33;98663.94;5096214;28;8830;-60
2023/04/12 03:18:06;;;;;;;;;0.00;0.00;;;;;9.35;64.40;98650.66;5096763;28;8856;-59
2023/04/12 03:20:34;;;;;;;;;0.25;0.25;;;;;9.34;64.43;98641.03;5096728;28;8830;-61
2023/04/12 03:23:02;;;;;;;;;1.00;0.00;;;;;9.32;64.12;98640.34;5096118;28;8829;-60
2023/04/12 03:25:30;;;;;;;;;1.00;1.00;;;;;9.32;64.82;98632.38;5096308;28;8832;-60
2023/04/12 03:27:57;;;;;;;;;1.00;1.00;;;;;9.31;65.24;98617.41;5096272;28;8903;-58
2023/04/12 03:30:25;;;;;;;;;0.00;0.00;;;;;9.28;64.61;98628.31;5096579;28;8858;-59
2023/04/12 03:32:52;;;;;;;;;0.00;0.00;;;;;9.27;65.03;98624.00;5096007;28;8826;-58
2023/04/12 03:35:20;;;;;;;;;0.00;0.00;;;;;9.25;64.92;98604.72;5096081;28;8818;-60
2023/04/12 03:37:48;;;;;;;;;0.00;0.00;;;;;9.22;64.97;98602.38;5096381;28;8864;-59
2023/04/12 03:40:16;;;;;;;;;0.00;0.00;;;;;9.18;65.22;98585.03;5096110;28;9535;-59
2023/04/12 03:42:44;;;;;;;;;1.00;1.00;;;;;9.15;65.55;98580.03;5096146;28;8842;-59
2023/04/12 03:45:11;;;;;;;;;2.00;1.50;;;;;9.14;65.44;98578.38;5095700;28;8822;-59
2023/04/12 03:47:39;;;;;;;;;0.50;0.00;;;;;9.13;65.44;98571.34;5096121;28;8841;-62
2023/04/12 03:50:07;;;;;;;;;0.00;0.00;;;;;9.12;65.94;98575.00;5096055;28;8899;-61
2023/04/12 03:52:38;;;;;;;;;1.00;1.00;;;;;9.10;65.33;98558.38;5095686;28;8810;-59
2023/04/12 03:55:06;;;;;;;;;0.75;0.00;;;;;9.09;65.69;98553.22;5096149;28;8830;-59
2023/04/12 03:57:34;;;;;;;;;0.75;0.75;;;;;9.07;65.43;98550.72;5099681;28;8814;-60
2023/04/12 04:00:02;;;;;;;;;0.75;0.75;;;;;9.08;65.41;98538.25;5099905;28;8842;-61
2023/04/12 04:02:31;;;;;;;;;0.25;0.00;;;;;9.06;65.85;98530.47;5099859;28;8868;-61
2023/04/12 04:05:01;;;;;;;;;0.25;0.25;;;;;9.07;66.05;98526.81;5100237;28;8861;-61
2023/04/12 04:07:28;;;;;;;;;0.00;0.00;;;;;9.08;66.15;98525.84;5100155;28;8830;-59
2023/04/12 04:09:56;;;;;;;;;1.00;1.00;;;;;9.10;66.17;98520.38;5100035;28;8845;-61
2023/04/12 04:12:24;;;;;;;;;0.00;0.00;;;;;9.10;66.02;98513.25;5099924;28;8842;-60
2023/04/12 04:14:51;;;;;;;;;1.00;0.50;;;;;9.12;66.20;98516.59;5099469;28;8823;-59
2023/04/12 04:17:20;;;;;;;;;1.00;1.00;;;;;9.13;65.90;98507.63;5099716;28;9483;-60
2023/04/12 04:19:48;;;;;;;;;0.50;0.50;;;;;9.15;66.57;98504.84;5099194;28;8828;-60
2023/04/12 04:22:16;;;;;;;;;1.00;1.00;;;;;9.16;66.42;98495.88;5098638;28;8830;-58
2023/04/12 04:24:44;;;;;;;;;0.00;0.00;;;;;9.16;66.36;98498.53;5098480;28;8825;-59
2023/04/12 04:27:14;;;;;;;;;1.00;1.00;;;;;9.18;66.29;98485.97;5098737;28;8956;-58
2023/04/12 04:29:44;;;;;;;;;0.00;0.00;;;;;9.18;66.40;98475.34;5099516;28;8850;-59
2023/04/12 04:32:12;;;;;;;;;0.00;0.00;;;;;9.17;66.33;98478.94;5099440;28;9508;-61
2023/04/12 04:34:40;;;;;;;;;0.75;0.50;;;;;9.16;66.46;98464.84;5099220;28;8956;-60
2023/04/12 04:37:08;;;;;;;;;0.50;0.50;;;;;9.17;66.26;98466.53;5099060;28;8861;-61
2023/04/12 04:39:36;;;;;;;;;1.00;1.00;;;;;9.17;66.37;98458.56;5099264;28;8838;-61
2023/04/12 04:42:05;;;;;;;;;0.00;0.00;;;;;9.19;66.79;98455.75;5099998;28;9543;-59
2023/04/12 04:44:34;;;;;;;;;1.00;1.00;;;;;9.18;66.45;98446.94;5099004;28;8848;-61
2023/04/12 04:47:03;;;;;;;;;0.50;0.50;;;;;9.19;66.57;98445.97;5099442;28;9562;-60
2023/04/12 04:49:32;;;;;;;;;0.00;0.00;;;;;9.19;66.47;98440.66;5098828;28;8830;-61
2023/04/12 04:52:00;;;;;;;;;1.50;1.50;;;;;9.21;66.96;98429.88;5098767;28;8849;-60
2023/04/12 04:54:28;;;;;;;;;0.00;0.00;;;;;9.22;66.91;98423.59;5099869;28;8821;-59
2023/04/12 04:56:56;;;;;;;;;0.25;0.25;;;;;9.23;67.05;98428.75;5099111;28;8822;-60
2023/04/12 04:59:24;;;;;;;;;1.00;0.00;;;;;9.24;66.84;98430.41;5099021;28;8869;-59
2023/04/12 05:01:52;;;;;;;;;1.00;1.00;;;;;9.25;67.04;98432.09;5099294;28;8842;-60
2023/04/12 05:04:20;;;;;;;;;0.00;0.00;;;;;9.26;66.98;98423.13;5098863;28;8840;-59
2023/04/12 05:06:47;;;;;;;;;0.00;0.00;;;;;9.28;66.46;98426.47;5098262;28;8910;-59
2023/04/12 05:09:15;;;;;;;;;0.00;0.00;;;;;9.30;66.48;98415.69;5098699;28;8932;-61
2023/04/12 05:11:43;;;;;;;;;0.00;0.00;;;;;9.31;66.91;98404.94;5098614;28;8826;-60
2023/04/12 05:14:10;;;;;;;;;0.00;0.00;;;;;9.34;66.67;98414.41;5098408;28;8826;-60
2023/04/12 05:16:39;;;;;;;;;0.00;0.00;;;;;9.35;66.59;98400.97;5098582;28;8953;-58
2023/04/12 05:19:07;;;;;;;;;0.50;0.50;;;;;9.37;66.95;98396.34;5098392;28;8907;-61
2023/04/12 05:21:34;;;;;;;;;0.75;0.75;;;;;9.41;67.08;98391.56;5098672;28;9567;-62
2023/04/12 05:24:02;;;;;;;;;0.00;0.00;;;;;9.43;66.69;98393.06;5097218;28;8830;-61
2023/04/12 05:26:31;;;;;;;;;0.00;0.00;;;;;9.45;67.12;98391.09;5097236;28;8919;-58
2023/04/12 05:29:00;;;;;;;;;0.00;0.00;;;;;9.47;66.91;98391.78;5096955;28;8826;-59
2023/04/12 05:31:28;;;;;;;;;1.00;0.50;;;;;9.47;66.69;98383.81;5097441;28;8919;-59
2023/04/12 05:33:56;;;;;;;;;0.00;0.00;;;;;9.48;67.02;98384.66;5097272;28;8818;-59
2023/04/12 05:36:23;;;;;;;;;0.00;0.00;;;;;9.49;67.05;98371.19;5097737;28;8822;-59
2023/04/12 05:38:51;;;;;;;;;0.00;0.00;;;;;9.50;66.73;98370.22;5097322;28;8832;-60
2023/04/12 05:41:19;;;;;;;;;0.00;0.00;;;;;9.52;66.84;98364.75;5098222;28;8834;-60
2023/04/12 05:43:47;;;;;;;;;0.00;0.00;;;;;9.53;66.78;98372.56;5097421;28;8822;-59
2023/04/12 05:46:15;;;;;;;;;0.00;0.00;;;;;9.56;67.01;98361.63;5097617;28;8829;-60
2023/04/12 05:48:42;;;;;;;;;0.25;0.25;;;;;9.56;66.77;98358.16;5097009;28;8840;-60
2023/04/12 05:51:10;;;;;;;;;0.00;0.00;;;;;9.57;67.06;98357.97;5097228;28;9518;-59
2023/04/12 05:53:38;;;;;;;;;1.50;1.50;;;;;9.56;67.22;98345.69;5097547;28;9283;-60
2023/04/12 05:56:06;;;;;;;;;0.00;0.00;;;;;9.58;67.05;98353.50;5096774;28;8864;-59
2023/04/12 05:58:33;;;;;;;;;0.00;0.00;;;;;9.58;67.34;98349.00;5096582;28;8854;-59
2023/04/12 06:01:01;;;;;;;;;0.00;0.00;;;;;9.57;67.58;98347.34;5096710;28;9558;-59
2023/04/12 06:03:30;;;;;;;;;0.00;0.00;;;;;9.56;67.67;98351.00;5095885;28;8867;-60
2023/04/12 06:05:58;;;;;;;;;0.50;0.50;;;;;9.52;67.61;98349.66;5097136;28;8853;-61
2023/04/12 06:08:28;;;;;;;;;0.00;0.00;;;;;9.48;67.41;98345.63;5097168;28;9836;-60
2023/04/12 06:10:55;;;;;;;;;0.25;0.25;;;;;9.42;68.11;98345.41;5096541;28;8818;-60
2023/04/12 06:13:23;;;;;;;;;0.00;0.00;;;;;9.32;67.80;98332.22;5095663;28;8830;-60
2023/04/12 06:15:51;;;;;;;;;0.00;0.00;;;;;9.21;68.94;98332.47;5094864;28;8814;-60
2023/04/12 06:18:18;;;;;;;;;0.00;0.00;;;;;9.06;69.08;98328.69;5093766;28;8837;-58
2023/04/12 06:20:46;;;;;;;;;0.00;0.00;;;;;8.95;69.51;98323.59;5095049;28;8841;-58
2023/04/12 06:23:14;;;;;;;;;0.00;0.00;;;;;8.87;70.35;98328.81;5095600;28;8818;-60
2023/04/12 06:25:42;;;;;;;;;0.00;0.00;;;;;8.82;69.88;98323.13;5095024;28;8814;-60
2023/04/12 06:28:10;;;;;;;;;0.00;0.00;;;;;8.79;70.32;98312.81;5095283;28;8817;-60
2023/04/12 06:30:38;;;;;;;;;0.00;0.00;;;;;8.76;70.61;98315.78;5094431;28;8866;-59
2023/04/12 06:33:06;;;;;;;;;0.25;0.00;;;;;8.72;70.69;98311.75;5094499;28;8842;-60
2023/04/12 06:35:34;;;;;;;;;0.00;0.00;;;;;8.69;70.64;98311.22;5094596;28;8822;-60
2023/04/12 06:38:02;;;;;;;;;0.00;0.00;;;;;8.66;70.99;98304.38;5095031;28;8826;-58
2023/04/12 06:40:30;;;;;;;;;0.00;0.00;;;;;8.67;70.70;98303.41;5093712;28;8850;-61
2023/04/12 06:42:57;;;;;;;;;0.00;0.00;;;;;8.67;70.90;98294.63;5095484;28;8821;-59
2023/04/12 06:45:26;;;;;;;;;0.00;0.00;;;;;8.67;70.99;98292.78;5096515;28;8845;-60
2023/04/12 06:47:55;;;;;;;;;0.00;0.00;;;;;8.69;71.20;98290.84;5096125;28;8830;-60
2023/04/12 06:50:24;;;;;;;;;0.00;0.00;;;;;8.72;71.74;98282.56;5095675;28;8918;-60
2023/04/12 06:52:52;;;;;;;;;0.00;0.00;;;;;8.74;71.33;98275.28;5094736;28;8826;-61
2023/04/12 06:55:19;;;;;;;;;0.00;0.00;;;;;8.72;71.76;98261.34;5094520;28;8836;-60
2023/04/12 06:57:50;;;;;;;;;0.00;0.00;;;;;8.70;71.55;98255.34;5093644;28;8818;-58
2023/04/12 07:00:18;;;;;;;;;0.00;0.00;;;;;8.69;71.81;98253.69;5093344;28;8850;-59
2023/04/12 07:02:46;;;;;;;;;1.00;0.50;;;;;8.69;71.70;98250.19;5092598;28;8842;-59
2023/04/12 07:05:14;;;;;;;;;0.00;0.00;;;;;8.70;72.17;98250.03;5093765;28;9849;-58
2023/04/12 07:07:44;;;;;;;;;0.00;0.00;;;;;8.73;71.93;98249.72;5094042;28;8830;-58
2023/04/12 07:10:12;;;;;;;;;0.00;0.00;;;;;8.74;72.15;98235.47;5094489;28;8814;-61
2023/04/12 07:12:40;;;;;;;;;0.00;0.00;;;;;8.77;71.80;98237.84;5093604;28;8841;-60
2023/04/12 07:15:08;;;;;;;;;0.00;0.00;;;;;8.76;72.57;98230.88;5094200;28;8834;-58
2023/04/12 07:17:36;;;;;;;;;0.00;0.00;;;;;8.80;72.64;98228.75;5093709;28;8911;-57
2023/04/12 07:20:04;;;;;;;;;0.00;0.00;;;;;8.82;72.52;98222.28;5094066;28;8841;-61
2023/04/12 07:22:32;;;;;;;;;0.00;0.00;;;;;8.86;72.37;98215.69;5094631;28;8976;-61
2023/04/12 07:25:00;;;;;;;;;0.00;0.00;;;;;8.89;72.26;98212.72;5094068;28;8825;-59
2023/04/12 07:27:28;;;;;;;;;0.25;0.25;;;;;8.91;72.52;98205.44;5094450;28;8880;-59
2023/04/12 07:29:56;;;;;;;;;0.00;0.00;;;;;8.94;72.86;98202.47;5094616;28;9792;-60
2023/04/12 07:32:26;;;;;;;;;1.00;1.00;;;;;8.98;72.54;98195.84;5094355;28;8826;-60
2023/04/12 07:34:54;;;;;;;;;0.00;0.00;;;;;9.03;72.76;98190.09;5092522;28;8845;-60
2023/04/12 07:37:22;;;;;;;;;0.00;0.00;;;;;9.08;72.33;98179.81;5092404;28;8834;-60
2023/04/12 07:39:50;;;;;;;;;0.00;0.00;;;;;9.13;72.65;98178.38;5093193;28;8901;-59
2023/04/12 07:42:18;;;;;;;;;0.00;0.00;;;;;9.17;73.07;98186.84;5093035;28;8842;-60
2023/04/12 07:44:46;;;;;;;;;0.00;0.00;;;;;9.21;72.52;98175.78;5093218;28;8942;-59
2023/04/12 07:47:14;;;;;;;;;0.00;0.00;;;;;9.26;73.01;98177.97;5093555;28;8826;-62
2023/04/12 07:49:42;;;;;;;;;0.00;0.00;;;;;9.29;72.63;98175.84;5093471;28;8821;-61
2023/04/12 07:52:10;;;;;;;;;3.00;1.00;;;;;9.38;72.54;98166.06;5093549;28;8850;-61
2023/04/12 07:54:37;;;;;;;;;0.00;0.00;;;;;9.49;72.39;98168.47;5092260;28;8826;-59
2023/04/12 07:57:06;;;;;;;;;0.00;0.00;;;;;9.61;72.19;98162.72;5092691;28;8841;-59
2023/04/12 07:59:35;;;;;;;;;0.00;0.00;;;;;9.69;72.11;98153.91;5092594;28;9566;-60
2023/04/12 08:02:04;;;;;;;;;0.00;0.00;;;;;9.76;71.71;98150.47;5092902;28;8862;-61
2023/04/12 08:04:32;;;;;;;;;0.00;0.00;;;;;9.81;71.72;98150.81;5093569;28;8854;-62
2023/04/12 08:07:00;;;;;;;;;0.00;0.00;;;;;9.86;71.24;98156.47;5093474;28;8833;-61
2023/04/12 08:09:29;;;;;;;;;0.00;0.00;;;;;9.91;71.33;98140.03;5094390;28;8830;-60
2023/04/12 08:11:57;;;;;;;;;0.00;0.00;;;;;9.97;71.11;98142.91;5093560;28;8814;-59
2023/04/12 08:14:25;;;;;;;;;0.00;0.00;;;;;10.05;71.64;98137.63;5094517;28;9507;-60
2023/04/12 08:16:52;;;;;;;;;0.00;0.00;;;;;10.13;71.17;98136.81;5092849;28;8802;-60
2023/04/12 08:19:22;;;;;;;;;0.00;0.00;;;;;10.27;71.02;98128.19;5093574;28;8871;-59
2023/04/12 08:21:50;;;;;;;;;0.00;0.00;;;;;10.51;70.75;98126.38;5093676;28;8857;-61
2023/04/12 08:24:18;;;;;;;;;0.00;0.00;;;;;10.80;69.95;98126.72;5094836;28;9594;-61
2023/04/12 08:26:46;;;;;;;;;0.00;0.00;;;;;11.06;69.69;98116.66;5094446;28;8834;-60
2023/04/12 08:29:14;;;;;;;;;0.00;0.00;;;;;11.24;68.80;98113.81;5093585;28;8806;-60
2023/04/12 08:31:42;;;;;;;;;0.00;0.00;;;;;11.39;68.77;98112.09;5093947;28;8862;-59
2023/04/12 08:34:10;;;;;;;;;0.00;0.00;;;;;11.53;68.59;98117.50;5092534;28;8842;-60
2023/04/12 08:36:38;;;;;;;;;0.00;0.00;;;;;11.57;68.90;98115.34;5091866;28;8841;-59
2023/04/12 08:39:06;;;;;;;;;0.00;0.00;;;;;11.49;69.17;98118.88;5092241;28;8914;-59
2023/04/12 08:41:34;;;;;;;;;0.00;0.00;;;;;11.38;69.66;98121.91;5093414;28;8837;-59
2023/04/12 08:44:05;;;;;;;;;0.00;0.00;;;;;11.25;69.46;98113.63;5097306;28;8850;-60
2023/04/12 08:46:33;;;;;;;;;0.00;0.00;;;;;11.17;70.02;98110.16;5097781;28;9233;-61
2023/04/12 08:49:01;;;;;;;;;0.00;0.00;;;;;11.13;70.45;98122.97;5098094;28;8826;-61
2023/04/12 08:51:29;;;;;;;;;0.00;0.00;;;;;11.13;69.88;98101.66;5096987;28;8831;-61
2023/04/12 08:53:57;;;;;;;;;0.00;0.00;;;;;11.09;70.54;98112.84;5097758;28;8837;-61
2023/04/12 08:56:25;;;;;;;;;0.00;0.00;;;;;10.99;71.00;98107.69;5097747;28;8841;-61
2023/04/12 08:58:53;;;;;;;;;0.00;0.00;;;;;10.84;71.14;98121.88;5097359;28;8834;-62
2023/04/12 09:01:21;;;;;;;;;0.00;0.00;;;;;10.70;71.70;98110.06;5096698;28;9564;-61
2023/04/12 09:03:49;;;;;;;;;0.00;0.00;;;;;10.59;72.44;98107.75;5096874;28;8826;-60
2023/04/12 09:06:17;;;;;;;;;0.00;0.00;;;;;10.55;72.45;98094.94;5095832;28;9533;-62
2023/04/12 09:08:46;;;;;;;;;0.00;0.00;;;;;10.55;72.41;98090.44;5095916;28;8994;-60
2023/04/12 09:11:14;;;;;;;;;0.00;0.00;;;;;10.54;72.57;98088.78;5095088;28;8829;-62
2023/04/12 09:13:42;;;;;;;;;0.00;0.00;;;;;10.61;72.32;98091.63;5095649;28;8941;-60
2023/04/12 09:16:11;;;;;;;;;0.00;0.00;;;;;10.65;72.56;98082.28;5095396;28;8826;-60
2023/04/12 09:18:39;;;;;;;;;0.00;0.00;;;;;10.72;72.41;98085.94;5095465;28;8818;-60
2023/04/12 09:21:07;;;;;;;;;0.00;0.00;;;;;10.76;72.21;98085.44;5095418;28;8830;-63
2023/04/12 09:23:36;;;;;;;;;0.00;0.00;;;;;10.78;72.33;98064.78;5075820;28;8922;-62
2023/04/12 09:26:05;;;;;;;;;0.00;0.00;;;;;10.80;72.55;98068.13;5080838;28;8956;-62
2023/04/12 09:28:33;;;;;;;;;0.00;0.00;;;;;10.90;72.64;98067.94;5096308;28;8829;-62
2023/04/12 09:31:02;;;;;;;;;0.00;0.00;;;;;10.98;72.53;98070.56;5095825;28;8876;-61
2023/04/12 09:33:30;;;;;;;;;0.00;0.00;;;;;11.01;72.88;98070.25;5097207;28;8810;-61
2023/04/12 09:35:58;;;;;;;;;0.00;0.00;;;;;10.97;72.68;98069.75;5096537;28;8842;-59
2023/04/12 09:38:27;;;;;;;;;0.00;0.00;;;;;10.95;72.88;98071.75;5096075;28;8828;-60
2023/04/12 09:40:54;;;;;;;;;0.00;0.00;;;;;10.94;73.10;98070.06;5096131;28;8838;-60
2023/04/12 09:43:22;;;;;;;;;0.00;0.00;;;;;10.93;72.80;98063.09;5096590;28;8902;-61
2023/04/12 09:45:51;;;;;;;;;0.00;0.00;;;;;10.89;73.36;98061.78;5096016;28;8857;-61
2023/04/12 09:48:19;;;;;;;;;0.00;0.00;;;;;10.79;73.46;98058.50;5095248;28;8837;-62
2023/04/12 09:50:47;;;;;;;;;0.00;0.00;;;;;10.73;73.93;98072.47;5075116;28;8913;-62
2023/04/12 09:53:15;;;;;;;;;0.00;0.00;;;;;10.71;73.72;98074.44;5087609;28;8814;-61
2023/04/12 09:55:44;;;;;;;;;0.00;0.00;;;;;10.73;73.98;98061.81;5095764;28;9635;-60
2023/04/12 09:58:12;;;;;;;;;0.00;0.00;;;;;10.76;73.34;98064.13;5095251;28;8964;-61
2023/04/12 10:00:39;;;;;;;;;0.00;0.00;;;;;10.85;73.26;98067.63;5095194;28;8854;-60
2023/04/12 10:03:08;;;;;;;;;0.00;0.00;;;;;10.96;73.27;98060.09;5095322;28;8836;-61
2023/04/12 10:05:39;;;;;;;;;0.00;0.00;;;;;11.18;73.15;98059.38;5092927;28;8833;-62
2023/04/12 10:08:07;;;;;;;;;0.00;0.00;;;;;11.52;72.47;98046.56;5095103;28;8822;-60
2023/04/12 10:10:37;;;;;;;;;0.00;0.00;;;;;11.89;71.85;98052.03;5095524;28;8837;-59
2023/04/12 10:13:05;;;;;;;;;0.00;0.00;;;;;12.23;71.56;98049.81;5095554;28;8833;-61
2023/04/12 10:15:33;;;;;;;;;0.00;0.00;;;;;12.34;70.37;98046.72;5095702;28;8990;-61
2023/04/12 10:18:01;;;;;;;;;0.00;0.00;;;;;12.49;70.20;98048.41;5095503;28;8834;-60
2023/04/12 10:20:29;;;;;;;;;0.00;0.00;;;;;12.63;69.99;98046.78;5095738;28;8833;-61
2023/04/12 10:22:58;;;;;;;;;0.00;0.00;;;;;12.82;69.56;98035.56;5096405;28;8861;-61
2023/04/12 10:25:28;;;;;;;;;0.00;0.00;;;;;12.99;69.19;98037.91;5096206;28;8840;-61
2023/04/12 10:27:56;;;;;;;;;0.00;0.00;;;;;13.12;69.27;98042.63;5096765;28;9526;-60
2023/04/12 10:30:24;;;;;;;;;0.00;0.00;;;;;13.07;69.39;98035.16;5096091;28;8899;-62
2023/04/12 10:32:52;;;;;;;;;0.00;0.00;;;;;12.95;69.18;98035.81;5096496;28;8875;-60
2023/04/12 10:35:20;;;;;;;;;0.00;0.00;;;;;12.66;70.55;98023.22;5095972;28;8882;-61
2023/04/12 10:37:48;;;;;;;;;0.00;0.00;;;;;12.43;70.75;98034.94;5095792;28;8834;-60
2023/04/12 10:40:17;;;;;;;;;0.00;0.00;;;;;12.36;71.58;98028.66;5095752;28;8833;-62
2023/04/12 10:42:46;;;;;;;;;0.00;0.00;;;;;12.46;71.64;98029.25;5095903;28;8872;-61
2023/04/12 10:45:14;;;;;;;;;0.00;0.00;;;;;12.78;70.55;98028.94;5096149;28;8979;-60
2023/04/12 10:47:43;;;;;;;;;0.00;0.00;;;;;12.82;70.50;98019.53;5095768;28;8891;-61
2023/04/12 10:50:11;;;;;;;;;0.00;0.00;;;;;13.09;70.24;98017.13;5095352;28;8830;-61
2023/04/12 10:52:40;;;;;;;;;0.00;0.00;;;;;13.75;68.31;98011.53;5094985;28;8899;-61
2023/04/12 10:55:08;;;;;;;;;0.00;0.00;;;;;14.11;68.21;98024.91;5094651;28;8826;-61
2023/04/12 10:57:36;;;;;;;;;0.00;0.00;;;;;14.13;68.13;98012.97;5095018;28;8841;-60
2023/04/12 11:00:04;;;;;;;;;0.00;0.00;;;;;14.61;66.93;98006.00;5095204;28;8865;-62
2023/04/12 11:02:35;;;;;;;;;0.00;0.00;;;;;14.74;66.70;98006.09;5094823;28;8834;-60
2023/04/12 11:05:03;;;;;;;;;0.00;0.00;;;;;14.64;66.89;98005.63;5094763;28;8854;-62
2023/04/12 11:07:31;;;;;;;;;0.00;0.00;;;;;14.50;67.13;98014.59;5095462;28;8834;-62
2023/04/12 11:09:59;;;;;;;;;0.00;0.00;;;;;14.24;68.11;98012.50;5094987;28;9554;-61
2023/04/12 11:12:29;;;;;;;;;0.00;0.00;;;;;13.96;68.49;98011.56;5095178;28;8833;-62
2023/04/12 11:14:57;;;;;;;;;0.00;0.00;;;;;13.80;68.89;98016.31;5094391;28;8922;-62
2023/04/12 11:17:26;;;;;;;;;0.00;0.00;;;;;13.72;69.21;98013.75;5094515;28;8918;-61
2023/04/12 11:19:54;;;;;;;;;0.00;0.00;;;;;13.63;69.11;98020.25;5094155;28;8821;-60
2023/04/12 11:22:22;;;;;;;;;0.00;0.00;;;;;13.54;69.74;98026.72;5094226;28;8936;-61
2023/04/12 11:24:50;;;;;;;;;0.00;0.00;;;;;13.45;69.51;98017.97;5094021;28;8968;-62
2023/04/12 11:27:18;;;;;;;;;0.00;0.00;;;;;13.36;69.99;98027.13;5093817;28;8838;-61
2023/04/12 11:29:46;;;;;;;;;0.00;0.00;;;;;13.22;70.17;98022.63;5094270;28;8983;-61
2023/04/12 11:32:15;;;;;;;;;0.00;0.00;;;;;13.08;69.77;98031.47;5094761;28;8907;-62
2023/04/12 11:34:43;;;;;;;;;0.00;0.00;;;;;12.96;70.60;98016.09;5094880;28;9785;-61
2023/04/12 11:37:11;;;;;;;;;0.00;0.00;;;;;12.86;70.37;98023.50;5094356;28;8830;-61
2023/04/12 11:39:39;;;;;;;;;0.00;0.00;;;;;12.72;71.00;98019.84;5094363;28;8844;-62
2023/04/12 11:42:08;;;;;;;;;0.00;0.00;;;;;12.48;71.22;98038.75;5094148;28;8963;-58
2023/04/12 11:44:36;;;;;;;;;0.00;0.00;;;;;12.19;72.04;98022.66;5094158;28;8850;-59
2023/04/12 11:47:22;;;;;;;;;0.00;0.00;;;;;12.25;72.42;98016.56;5094407;28;8830;-61
2023/04/12 11:49:50;;;;;;;;;0.00;0.00;;;;;12.47;70.78;98013.03;5093697;28;8818;-62